createdAt,value
2022-10-18T00:01:00.238Z,17.30
2022-10-18T00:03:36.938Z,12.05
2022-10-18T00:06:04.860Z,18.15
2022-10-18T00:08:31.689Z,17.83
2022-10-18T00:10:58.634Z,13.60
2022-10-18T00:13:26.369Z,12.55
2022-10-18T00:15:57.986Z,16.92
2022-10-18T00:18:28.017Z,13.20
2022-10-18T00:20:59.073Z,15.38
2022-10-18T00:23:31.039Z,13.65
2022-10-18T00:26:10.512Z,16.45
2022-10-18T00:28:40.968Z,17.23
2022-10-18T00:31:16.445Z,16.55
2022-10-18T00:33:48.279Z,17.08
2022-10-18T00:36:15.463Z,16.25
2022-10-18T00:38:43.858Z,12.38
2022-10-18T00:41:21.668Z,16.92
2022-10-18T00:44:04.901Z,17.85
2022-10-18T00:46:33.955Z,18.08
2022-10-18T00:49:17.567Z,17.73
2022-10-18T00:51:50.102Z,17.77
2022-10-18T00:54:22.421Z,17.77
2022-10-18T00:59:18.258Z,17.20
2022-10-18T01:01:50.635Z,18.77
2022-10-18T01:04:19.498Z,15.60
2022-10-18T01:07:07.213Z,17.42
2022-10-18T01:09:56.477Z,18.85
2022-10-18T01:12:50.616Z,18.55
2022-10-18T01:15:31.566Z,18.88
2022-10-18T01:18:04.499Z,19.17
2022-10-18T01:20:34.198Z,18.25
2022-10-18T01:23:08.709Z,18.25
2022-10-18T01:26:01.457Z,19.65
2022-10-18T01:28:57.519Z,19.00
2022-10-18T01:31:37.149Z,19.77
2022-10-18T01:34:11.150Z,18.25
2022-10-18T01:36:42.479Z,19.42
2022-10-18T01:39:14.735Z,20.10
2022-10-18T01:44:16.773Z,19.60
2022-10-18T01:46:45.914Z,20.48
2022-10-18T01:49:16.280Z,19.73
2022-10-18T01:51:44.122Z,19.63
2022-10-18T01:54:19.640Z,18.10
2022-10-18T01:57:00.353Z,19.45
2022-10-18T02:00:00.119Z,18.35
2022-10-18T02:02:39.464Z,19.13
2022-10-18T02:05:39.276Z,19.52
2022-10-18T02:08:38.847Z,19.48
2022-10-18T02:11:14.478Z,19.73
2022-10-18T02:14:17.283Z,19.88
2022-10-18T02:19:33.258Z,19.35
2022-10-18T02:22:15.503Z,20.15
2022-10-18T02:24:47.661Z,20.15
2022-10-18T02:27:14.857Z,18.45
2022-10-18T02:29:43.006Z,20.27
2022-10-18T02:32:12.381Z,18.75
2022-10-18T02:34:44.303Z,19.83
2022-10-18T02:37:12.986Z,20.13
2022-10-18T02:39:51.465Z,16.58
2022-10-18T02:42:18.331Z,18.90
2022-10-18T02:44:45.060Z,20.25
2022-10-18T02:47:12.827Z,19.27
2022-10-18T02:49:42.125Z,20.00
2022-10-18T02:52:11.315Z,19.45
2022-10-18T02:54:38.064Z,19.63
2022-10-18T02:57:09.635Z,19.35
2022-10-18T02:59:36.358Z,18.75
2022-10-18T03:02:03.258Z,20.55
2022-10-18T03:04:37.451Z,18.52
2022-10-18T03:07:09.786Z,20.67
2022-10-18T03:09:42.665Z,20.65
2022-10-18T03:12:09.420Z,21.15
2022-10-18T03:14:38.852Z,19.85
2022-10-18T03:17:07.327Z,19.95
2022-10-18T03:19:40.653Z,20.30
2022-10-18T03:22:11.789Z,21.42
2022-10-18T03:24:39.805Z,21.05
2022-10-18T03:27:11.052Z,20.15
2022-10-18T03:29:37.903Z,21.02
2022-10-18T03:32:04.677Z,20.45
2022-10-18T03:34:40.271Z,20.15
2022-10-18T03:37:12.358Z,20.05
2022-10-18T03:39:39.071Z,19.63
2022-10-18T03:42:05.877Z,20.08
2022-10-18T03:44:35.689Z,20.65
2022-10-18T03:47:24.610Z,19.50
2022-10-18T03:49:57.231Z,20.88
2022-10-18T03:52:27.322Z,20.40
2022-10-18T03:54:56.090Z,20.17
2022-10-18T03:57:22.762Z,20.73
2022-10-18T03:59:49.370Z,20.52
2022-10-18T04:02:25.568Z,20.83
2022-10-18T04:04:52.660Z,20.67
2022-10-18T04:07:19.455Z,20.67
2022-10-18T04:09:48.938Z,20.75
2022-10-18T04:12:15.581Z,19.95
2022-10-18T04:14:42.233Z,21.35
2022-10-18T04:17:08.942Z,20.60
2022-10-18T04:19:35.592Z,20.38
2022-10-18T04:22:02.254Z,19.98
2022-10-18T04:24:28.850Z,20.77
2022-10-18T04:26:55.552Z,20.55
2022-10-18T04:29:22.408Z,16.05
2022-10-18T04:31:50.564Z,19.80
2022-10-18T04:34:21.884Z,20.15
2022-10-18T04:36:48.561Z,19.88
2022-10-18T04:39:15.307Z,20.15
2022-10-18T04:41:46.950Z,21.55
2022-10-18T04:44:14.719Z,18.73
2022-10-18T04:46:41.323Z,20.00
2022-10-18T04:49:07.946Z,20.75
2022-10-18T04:51:34.634Z,20.58
2022-10-18T04:54:01.327Z,19.98
2022-10-18T04:56:29.213Z,19.75
2022-10-18T04:58:56.279Z,21.60
2022-10-18T05:01:22.957Z,21.00
2022-10-18T05:03:55.033Z,25.67
2022-10-18T05:06:22.504Z,29.20
2022-10-18T05:08:49.689Z,23.77
2022-10-18T05:11:16.435Z,21.58
2022-10-18T05:13:45.948Z,23.98
2022-10-18T05:16:14.393Z,22.90
2022-10-18T05:18:41.133Z,21.90
2022-10-18T05:21:07.768Z,21.73
2022-10-18T05:23:34.619Z,21.23
2022-10-18T05:26:03.413Z,20.58
2022-10-18T05:28:39.606Z,21.58
2022-10-18T05:31:13.770Z,21.40
2022-10-18T05:33:47.144Z,20.35
2022-10-18T05:36:24.847Z,20.85
2022-10-18T05:38:52.970Z,20.85
2022-10-18T05:41:19.875Z,20.05
2022-10-18T05:43:46.494Z,19.02
2022-10-18T05:46:15.358Z,19.40
2022-10-18T05:48:44.186Z,19.45
2022-10-18T05:51:18.809Z,19.35
2022-10-18T05:53:46.653Z,19.23
2022-10-18T05:56:14.786Z,19.80
2022-10-18T05:58:42.714Z,19.48
2022-10-18T06:01:10.746Z,20.13
2022-10-18T06:03:38.669Z,18.67
2022-10-18T06:06:13.196Z,20.45
2022-10-18T06:08:44.276Z,19.38
2022-10-18T06:11:19.373Z,19.50
2022-10-18T06:13:48.218Z,20.17
2022-10-18T06:16:17.476Z,19.52
2022-10-18T06:18:48.355Z,18.85
2022-10-18T06:21:15.393Z,18.80
2022-10-18T06:23:42.208Z,18.38
2022-10-18T06:26:16.487Z,18.85
2022-10-18T06:28:52.728Z,18.58
2022-10-18T06:31:22.485Z,18.73
2022-10-18T06:33:54.079Z,18.55
2022-10-18T06:36:23.698Z,18.55
2022-10-18T06:38:52.534Z,19.05
2022-10-18T06:41:19.719Z,18.95
2022-10-18T06:43:54.434Z,18.90
2022-10-18T06:46:21.236Z,19.42
2022-10-18T06:48:50.901Z,19.60
2022-10-18T06:51:18.452Z,19.98
2022-10-18T06:53:59.017Z,19.95
2022-10-18T06:56:38.632Z,19.85
2022-10-18T06:59:05.513Z,19.52
2022-10-18T07:01:37.761Z,20.30
2022-10-18T07:06:33.227Z,19.10
2022-10-18T07:09:00.356Z,19.42
2022-10-18T07:11:30.732Z,20.35
2022-10-18T07:14:06.953Z,21.13
2022-10-18T07:16:37.438Z,22.20
2022-10-18T07:19:04.141Z,21.85
2022-10-18T07:21:35.228Z,22.50
2022-10-18T07:24:03.356Z,22.02
2022-10-18T07:26:35.017Z,23.63
2022-10-18T07:29:20.564Z,23.15
2022-10-18T07:31:47.381Z,25.10
2022-10-18T07:34:15.006Z,23.58
2022-10-18T07:36:44.827Z,23.98
2022-10-18T07:39:17.322Z,21.98
2022-10-18T07:41:49.185Z,26.70
2022-10-18T07:44:16.124Z,27.45
2022-10-18T07:46:46.958Z,26.20
2022-10-18T07:49:20.691Z,23.58
2022-10-18T07:51:47.355Z,17.35
2022-10-18T07:54:28.956Z,21.85
2022-10-18T07:56:56.772Z,25.42
2022-10-18T07:59:23.956Z,25.70
2022-10-18T08:01:51.171Z,22.77
2022-10-18T08:04:21.488Z,24.95
2022-10-18T08:06:49.914Z,24.38
2022-10-18T08:09:16.692Z,26.98
2022-10-18T08:11:43.534Z,20.55
2022-10-18T08:14:14.440Z,25.00
2022-10-18T08:16:41.464Z,25.73
2022-10-18T08:19:08.187Z,15.63
2022-10-18T08:21:37.994Z,24.67
2022-10-18T08:24:05.156Z,17.15
2022-10-18T08:26:38.069Z,16.02
2022-10-18T08:29:21.234Z,24.17
2022-10-18T08:31:51.048Z,25.85
2022-10-18T08:34:19.824Z,25.38
2022-10-18T08:36:47.098Z,22.08
2022-10-18T08:39:13.846Z,26.38
2022-10-18T08:42:12.504Z,17.42
2022-10-18T08:44:58.302Z,18.75
2022-10-18T08:47:46.758Z,24.27
2022-10-18T08:50:27.351Z,22.98
2022-10-18T08:53:02.993Z,20.17
2022-10-18T08:55:37.825Z,16.88
2022-10-18T08:58:21.646Z,14.90
2022-10-18T09:01:13.073Z,15.10
2022-10-18T09:03:52.063Z,17.27
2022-10-18T09:06:43.830Z,14.13
2022-10-18T09:09:37.172Z,14.82
2022-10-18T09:12:39.176Z,14.30
2022-10-18T09:15:33.479Z,24.30
2022-10-18T09:18:19.127Z,23.50
2022-10-18T09:20:51.980Z,16.70
2022-10-18T09:23:27.985Z,17.33
2022-10-18T09:26:23.249Z,15.93
2022-10-18T09:29:02.353Z,26.83
2022-10-18T09:31:38.127Z,23.13
2022-10-18T09:34:34.227Z,24.10
2022-10-18T09:37:01.365Z,27.95
2022-10-18T09:39:38.797Z,29.75
2022-10-18T09:42:27.023Z,16.05
2022-10-18T09:45:38.187Z,26.88
2022-10-18T09:48:34.542Z,27.40
2022-10-18T09:51:09.555Z,18.20
2022-10-18T09:54:04.857Z,27.00
2022-10-18T09:57:00.388Z,22.02
2022-10-18T09:59:56.140Z,21.13
2022-10-18T10:02:28.061Z,26.42
2022-10-18T10:04:56.919Z,17.27
2022-10-18T10:07:41.851Z,25.55
2022-10-18T10:10:22.330Z,28.00
2022-10-18T10:13:04.590Z,23.45
2022-10-18T10:15:38.086Z,27.08
2022-10-18T10:18:15.684Z,25.83
2022-10-18T10:20:45.840Z,20.15
2022-10-18T10:23:28.222Z,27.45
2022-10-18T10:28:28.541Z,27.67
2022-10-18T10:30:55.249Z,21.73
2022-10-18T10:33:42.017Z,35.83
2022-10-18T10:36:21.419Z,25.55
2022-10-18T10:39:04.437Z,29.00
2022-10-18T10:41:38.220Z,23.58
2022-10-18T10:44:15.507Z,34.05
2022-10-18T10:46:43.330Z,34.97
2022-10-18T10:49:39.681Z,35.60
2022-10-18T10:52:36.618Z,25.58
2022-10-18T10:55:30.489Z,35.60
2022-10-18T10:57:54.165Z,33.20
2022-10-18T11:00:38.584Z,38.97
2022-10-18T11:03:28.476Z,38.58
2022-10-18T11:05:57.905Z,39.72
2022-10-18T11:08:30.939Z,37.88
2022-10-18T11:11:22.888Z,36.35
2022-10-18T11:16:53.883Z,34.30
2022-10-18T11:19:34.305Z,38.17
2022-10-18T11:22:05.238Z,29.20
2022-10-18T11:24:31.907Z,33.90
2022-10-18T11:27:13.675Z,33.75
2022-10-18T11:29:55.664Z,40.08
2022-10-18T11:32:34.239Z,36.75
2022-10-18T11:35:27.503Z,40.88
2022-10-18T11:38:20.251Z,33.75
2022-10-18T11:41:05.035Z,40.42
2022-10-18T11:44:01.743Z,30.63
2022-10-18T11:46:54.075Z,31.23
2022-10-18T11:49:56.685Z,39.10
2022-10-18T11:52:57.796Z,30.95
2022-10-18T11:55:33.056Z,29.20
2022-10-18T11:58:35.222Z,21.80
2022-10-18T12:01:15.019Z,43.43
2022-10-18T12:04:09.160Z,44.15
2022-10-18T12:06:43.287Z,32.17
2022-10-18T12:09:39.532Z,30.88
2022-10-18T12:12:52.138Z,41.88
2022-10-18T12:15:30.503Z,34.47
2022-10-18T12:18:23.505Z,39.72
2022-10-18T12:20:54.996Z,43.17
2022-10-18T12:23:49.082Z,40.10
2022-10-18T12:26:17.144Z,36.00
2022-10-18T12:28:43.827Z,30.33
2022-10-18T12:31:50.236Z,29.65
2022-10-18T12:34:30.159Z,45.33
2022-10-18T12:37:40.437Z,44.50
2022-10-18T12:40:28.147Z,36.22
2022-10-18T12:43:01.143Z,40.35
2022-10-18T12:45:35.544Z,38.80
2022-10-18T12:48:07.126Z,39.72
2022-10-18T12:50:37.771Z,33.60
2022-10-18T12:53:10.441Z,26.17
2022-10-18T12:58:34.831Z,41.97
2022-10-18T13:01:07.503Z,42.97
2022-10-18T13:03:57.106Z,32.25
2022-10-18T13:06:54.742Z,33.10
2022-10-18T13:09:23.584Z,26.58
2022-10-18T13:11:51.572Z,37.67
2022-10-18T13:14:34.921Z,36.70
2022-10-18T13:17:04.690Z,24.67
2022-10-18T13:20:23.993Z,32.70
2022-10-18T13:23:02.901Z,37.67
2022-10-18T13:25:57.656Z,26.60
2022-10-18T13:28:24.504Z,25.10
2022-10-18T13:31:30.055Z,21.95
2022-10-18T13:34:28.231Z,21.30
2022-10-18T13:37:32.756Z,35.70
2022-10-18T13:40:28.781Z,22.15
2022-10-18T13:43:20.495Z,24.25
2022-10-18T13:45:56.645Z,30.60
2022-10-18T13:48:34.683Z,20.77
2022-10-18T13:51:41.087Z,39.60
2022-10-18T13:54:40.552Z,36.78
2022-10-18T13:57:45.559Z,35.17
2022-10-18T14:00:34.303Z,30.63
2022-10-18T14:03:57.908Z,25.80
2022-10-18T14:06:29.447Z,21.77
2022-10-18T14:08:56.470Z,34.50
2022-10-18T14:11:36.196Z,32.70
2022-10-18T14:14:35.124Z,26.90
2022-10-18T14:17:15.356Z,20.38
2022-10-18T14:19:52.483Z,33.38
2022-10-18T14:22:32.780Z,34.55
2022-10-18T14:25:01.099Z,31.83
2022-10-18T14:27:36.598Z,23.25
2022-10-18T14:30:25.701Z,22.33
2022-10-18T14:33:03.113Z,20.55
2022-10-18T14:35:38.570Z,24.63
2022-10-18T14:38:06.570Z,24.73
2022-10-18T14:40:39.123Z,24.70
2022-10-18T14:43:22.335Z,18.00
2022-10-18T14:45:49.225Z,26.23
2022-10-18T14:48:22.967Z,29.45
2022-10-18T14:51:00.732Z,24.13
2022-10-18T14:53:42.336Z,20.35
2022-10-18T14:56:46.857Z,18.30
2022-10-18T14:59:51.926Z,25.40
2022-10-18T15:02:41.293Z,28.75
2022-10-18T15:05:25.329Z,16.30
2022-10-18T15:08:00.226Z,20.48
2022-10-18T15:10:32.946Z,16.70
2022-10-18T15:13:11.946Z,27.58
2022-10-18T15:15:46.045Z,18.27
2022-10-18T15:18:27.465Z,18.23
2022-10-18T15:21:24.198Z,15.88
2022-10-18T15:23:52.097Z,29.88
2022-10-18T15:26:26.877Z,16.75
2022-10-18T15:28:56.492Z,18.55
2022-10-18T15:31:39.149Z,24.02
2022-10-18T15:34:08.758Z,24.67
2022-10-18T15:36:36.101Z,18.85
2022-10-18T15:39:17.037Z,21.08
2022-10-18T15:42:05.720Z,13.50
2022-10-18T15:44:38.536Z,20.88
2022-10-18T15:47:24.219Z,13.75
2022-10-18T15:49:57.557Z,14.40
2022-10-18T15:52:53.825Z,14.02
2022-10-18T15:55:29.335Z,12.98
2022-10-18T15:58:19.915Z,20.52
2022-10-18T16:00:48.957Z,12.38
2022-10-18T16:03:22.380Z,13.60
2022-10-18T16:05:49.972Z,22.02
2022-10-18T16:08:32.452Z,23.83
2022-10-18T16:11:02.175Z,16.95
2022-10-18T16:13:34.293Z,13.02
2022-10-18T16:18:28.383Z,12.57
2022-10-18T16:21:00.015Z,16.35
2022-10-18T16:23:35.647Z,18.85
2022-10-18T16:26:05.380Z,11.65
2022-10-18T16:28:43.447Z,19.75
2022-10-18T16:31:20.994Z,18.92
2022-10-18T16:33:49.015Z,18.48
2022-10-18T16:36:21.174Z,12.82
2022-10-18T16:39:00.814Z,10.85
2022-10-18T16:41:31.227Z,11.23
2022-10-18T16:43:57.985Z,10.93
2022-10-18T16:46:31.747Z,15.05
2022-10-18T16:48:58.966Z,19.73
2022-10-18T16:51:29.283Z,20.23
2022-10-18T16:53:56.952Z,18.38
2022-10-18T16:56:36.558Z,19.15
2022-10-18T16:59:05.432Z,18.52
2022-10-18T17:01:33.778Z,19.95
2022-10-18T17:04:06.594Z,17.45
2022-10-18T17:06:36.653Z,19.13
2022-10-18T17:09:04.306Z,19.42
2022-10-18T17:11:39.371Z,19.67
2022-10-18T17:14:06.622Z,19.45
2022-10-18T17:16:35.534Z,18.55
2022-10-18T17:19:06.911Z,18.38
2022-10-18T17:21:34.663Z,18.73
2022-10-18T17:24:03.110Z,18.10
2022-10-18T17:26:32.992Z,18.05
2022-10-18T17:29:05.873Z,17.67
2022-10-18T17:31:33.034Z,18.08
2022-10-18T17:34:03.792Z,18.40
2022-10-18T17:36:32.774Z,18.80
2022-10-18T17:38:59.730Z,19.63
2022-10-18T17:41:27.800Z,18.42
2022-10-18T17:43:54.491Z,18.17
2022-10-18T17:46:21.276Z,17.48
2022-10-18T17:48:47.947Z,19.30
2022-10-18T17:51:17.619Z,18.30
2022-10-18T17:53:51.159Z,18.48
2022-10-18T17:56:23.920Z,18.73
2022-10-18T17:58:51.922Z,20.67
2022-10-18T18:01:22.309Z,19.38
2022-10-18T18:03:49.523Z,18.73
2022-10-18T18:06:43.353Z,19.08
2022-10-18T18:09:17.013Z,18.55
2022-10-18T18:11:49.145Z,18.52
2022-10-18T18:16:57.355Z,19.17
2022-10-18T18:19:24.096Z,19.50
2022-10-18T18:21:53.769Z,19.30
2022-10-18T18:24:27.233Z,18.55
2022-10-18T18:26:55.923Z,18.88
2022-10-18T18:29:24.811Z,19.08
2022-10-18T18:31:52.126Z,19.23
2022-10-18T18:34:22.640Z,19.38
2022-10-18T18:36:50.262Z,18.88
2022-10-18T18:39:29.731Z,18.80
2022-10-18T18:41:57.600Z,18.48
2022-10-18T18:44:25.188Z,19.40
2022-10-18T18:46:53.828Z,18.60
2022-10-18T18:49:20.701Z,19.42
2022-10-18T18:51:47.732Z,19.33
2022-10-18T18:54:15.329Z,20.80
2022-10-18T18:56:45.379Z,21.80
2022-10-18T18:59:19.614Z,22.50
2022-10-18T19:01:49.467Z,21.38
2022-10-18T19:04:17.328Z,21.67
2022-10-18T19:06:45.902Z,21.95
2022-10-18T19:09:28.918Z,22.05
2022-10-18T19:12:01.586Z,22.20
2022-10-18T19:14:29.220Z,21.90
2022-10-18T19:17:08.180Z,21.83
2022-10-18T19:19:35.390Z,22.25
2022-10-18T19:22:11.303Z,22.35
2022-10-18T19:24:38.317Z,22.30
2022-10-18T19:27:10.325Z,22.13
2022-10-18T19:29:39.693Z,21.98
2022-10-18T19:32:09.681Z,21.35
2022-10-18T19:34:39.276Z,22.45
2022-10-18T19:37:08.079Z,21.70
2022-10-18T19:39:38.635Z,22.63
2022-10-18T19:42:09.074Z,21.77
2022-10-18T19:44:37.319Z,21.98
2022-10-18T19:47:11.686Z,22.63
2022-10-18T19:49:39.836Z,22.60
2022-10-18T19:52:12.973Z,23.30
2022-10-18T19:54:45.179Z,22.75
2022-10-18T19:57:15.441Z,23.58
2022-10-18T19:59:47.032Z,23.20
2022-10-18T20:02:19.209Z,23.52
2022-10-18T20:04:46.752Z,23.40
2022-10-18T20:07:14.162Z,23.17
2022-10-18T20:09:45.920Z,22.13
2022-10-18T20:12:13.352Z,22.73
2022-10-18T20:14:43.478Z,24.55
2022-10-18T20:17:21.366Z,23.15
2022-10-18T20:19:49.263Z,24.48
2022-10-18T20:22:16.966Z,24.58
2022-10-18T20:24:47.879Z,23.23
2022-10-18T20:27:26.829Z,24.95
2022-10-18T20:29:56.666Z,24.55
2022-10-18T20:32:31.690Z,24.17
2022-10-18T20:35:05.999Z,27.38
2022-10-18T20:37:34.524Z,25.88
2022-10-18T20:40:03.380Z,26.38
2022-10-18T20:42:32.009Z,26.95
2022-10-18T20:47:38.731Z,25.90
2022-10-18T20:50:05.895Z,26.80
2022-10-18T20:52:36.493Z,26.05
2022-10-18T20:55:06.672Z,25.35
2022-10-18T20:57:36.623Z,25.23
2022-10-18T21:00:04.307Z,25.08
2022-10-18T21:02:31.158Z,25.45
2022-10-18T21:05:06.271Z,24.98
2022-10-18T21:07:33.335Z,25.33
2022-10-18T21:10:02.333Z,24.80
2022-10-18T21:12:29.301Z,25.08
2022-10-18T21:14:56.038Z,25.75
2022-10-18T21:17:31.949Z,25.20
2022-10-18T21:19:58.811Z,24.75
2022-10-18T21:22:28.573Z,25.40
2022-10-18T21:24:55.551Z,24.35
2022-10-18T21:27:31.247Z,24.42
2022-10-18T21:30:04.260Z,25.83
2022-10-18T21:32:34.537Z,26.00
2022-10-18T21:35:07.814Z,25.48
2022-10-18T21:37:39.078Z,26.15
2022-10-18T21:40:07.985Z,27.88
2022-10-18T21:42:35.251Z,28.50
2022-10-18T21:45:06.957Z,28.77
2022-10-18T21:47:34.758Z,27.23
2022-10-18T21:50:03.864Z,26.88
2022-10-18T21:52:38.199Z,28.23
2022-10-18T21:55:11.151Z,25.83
2022-10-18T21:57:37.941Z,26.65
2022-10-18T22:00:06.670Z,27.08
2022-10-18T22:02:34.351Z,25.50
2022-10-18T22:05:08.213Z,25.63
2022-10-18T22:07:43.028Z,25.65
2022-10-18T22:10:10.050Z,26.20
2022-10-18T22:12:40.489Z,24.80
2022-10-18T22:15:07.737Z,25.08
2022-10-18T22:17:40.363Z,25.33
2022-10-18T22:20:07.516Z,23.63
2022-10-18T22:22:34.330Z,24.88
2022-10-18T22:25:04.901Z,24.48
2022-10-18T22:27:36.019Z,24.25
2022-10-18T22:30:07.559Z,23.10
2022-10-18T22:32:34.416Z,24.13
2022-10-18T22:35:01.298Z,23.05
2022-10-18T22:37:28.115Z,24.80
2022-10-18T22:39:54.907Z,23.40
2022-10-18T22:42:23.531Z,21.33
2022-10-18T22:44:54.648Z,21.83
2022-10-18T22:47:24.035Z,23.02
2022-10-18T22:49:50.947Z,22.80
2022-10-18T22:52:22.383Z,22.77
2022-10-18T22:54:52.062Z,22.45
2022-10-18T22:57:28.756Z,23.45
2022-10-18T23:00:02.752Z,21.60
2022-10-18T23:02:31.977Z,21.73
2022-10-18T23:04:59.136Z,22.85
2022-10-18T23:07:26.134Z,21.40
2022-10-18T23:09:54.197Z,23.52
2022-10-18T23:12:22.325Z,21.95
2022-10-18T23:14:54.060Z,21.95
2022-10-18T23:17:24.359Z,21.42
2022-10-18T23:19:51.141Z,21.92
2022-10-18T23:22:21.657Z,22.15
2022-10-18T23:24:48.394Z,22.48
2022-10-18T23:27:15.153Z,23.00
2022-10-18T23:29:45.597Z,21.02
2022-10-18T23:32:13.880Z,21.35
2022-10-18T23:34:40.726Z,20.05
2022-10-18T23:37:14.994Z,19.65
2022-10-18T23:39:41.739Z,19.25
2022-10-18T23:42:08.365Z,19.52
2022-10-18T23:44:35.091Z,18.67
2022-10-18T23:47:04.614Z,18.58
2022-10-18T23:49:34.380Z,18.52
2022-10-18T23:52:01.169Z,17.52
2022-10-18T23:54:30.361Z,17.88
2022-10-18T23:56:57.809Z,17.27
2022-10-18T23:59:32.015Z,17.77
